Time;durP1;ratioP1;P1;durP2;ratioP2;P2;SDS_P1;SDS_P2;PMS_P1;PMS_P2;Temp;Humidity;BMP_temperature;BMP_pressure;BME280_temperature;BME280_humidity;BME280_pressure;Samples;Min_cycle;Max_cycle;Signal;HPM_P1;HPM_P2
2022/08/16 00:00:57;;;;;;;10.57;9.57;;;;;;;;;;5087139;28;24387;-47
2022/08/16 00:03:22;;;;;;;9.80;8.90;;;;;;;;;;5086824;28;24449;-46
2022/08/16 00:05:48;;;;;;;9.87;8.97;;;;;;;;;;5086792;28;24485;-46
2022/08/16 00:08:13;;;;;;;10.30;9.20;;;;;;;;;;5086951;28;24417;-46
2022/08/16 00:10:38;;;;;;;10.80;9.70;;;;;;;;;;5086479;28;24481;-47
2022/08/16 00:13:05;;;;;;;9.30;8.50;;;;;;;;;;5086725;28;24424;-45
2022/08/16 00:15:35;;;;;;;10.50;9.60;;;;;;;;;;5089048;28;24443;-45
2022/08/16 00:18:01;;;;;;;10.30;9.30;;;;;;;;;;5090589;28;24455;-45
2022/08/16 00:20:26;;;;;;;10.40;9.50;;;;;;;;;;5089933;28;24468;-45
2022/08/16 00:22:51;;;;;;;10.43;9.63;;;;;;;;;;5090590;28;24430;-45
2022/08/16 00:25:19;;;;;;;10.40;9.60;;;;;;;;;;5090792;28;24406;-46
2022/08/16 00:27:44;;;;;;;10.03;9.20;;;;;;;;;;5089967;28;25026;-46
2022/08/16 00:30:10;;;;;;;9.90;9.00;;;;;;;;;;5090348;28;24418;-46
2022/08/16 00:32:36;;;;;;;11.25;10.18;;;;;;;;;;5090224;28;24477;-46
2022/08/16 00:35:02;;;;;;;9.50;8.70;;;;;;;;;;5090275;28;25005;-46
2022/08/16 00:37:27;;;;;;;10.07;9.18;;;;;;;;;;5090158;28;24509;-45
2022/08/16 00:39:53;;;;;;;10.27;9.38;;;;;;;;;;5090280;28;24398;-45
2022/08/16 00:42:18;;;;;;;10.77;9.80;;;;;;;;;;5090139;28;24418;-45
2022/08/16 00:44:55;;;;;;;10.50;9.60;;;;;;;;;;5089580;28;24449;-45
2022/08/16 00:47:22;;;;;;;10.20;9.20;;;;;;;;;;5089832;28;24426;-46
2022/08/16 00:49:47;;;;;;;10.50;9.50;;;;;;;;;;5089760;28;24540;-45
2022/08/16 00:52:12;;;;;;;10.45;9.45;;;;;;;;;;5089968;28;24501;-46
2022/08/16 00:54:37;;;;;;;10.50;9.60;;;;;;;;;;5089693;28;24423;-45
2022/08/16 00:57:03;;;;;;;10.00;9.10;;;;;;;;;;5089971;28;24459;-46
2022/08/16 00:59:30;;;;;;;10.45;9.45;;;;;;;;;;5089012;28;24501;-47
2022/08/16 01:01:56;;;;;;;10.20;9.25;;;;;;;;;;5089668;28;24460;-46
2022/08/16 01:04:22;;;;;;;10.20;9.30;;;;;;;;;;5089524;28;24437;-47
2022/08/16 01:06:48;;;;;;;9.65;8.85;;;;;;;;;;5089669;28;24406;-46
2022/08/16 01:09:13;;;;;;;10.52;9.43;;;;;;;;;;5089736;28;24386;-46
2022/08/16 01:11:39;;;;;;;10.10;9.30;;;;;;;;;;5089273;28;24399;-46
2022/08/16 01:14:14;;;;;;;10.43;9.52;;;;;;;;;;5089352;28;25029;-47
2022/08/16 01:16:41;;;;;;;10.27;9.35;;;;;;;;;;5089348;28;24394;-47
2022/08/16 01:19:10;;;;;;;10.07;9.17;;;;;;;;;;5089188;28;24406;-47
2022/08/16 01:21:38;;;;;;;10.45;9.45;;;;;;;;;;5089129;28;24421;-47
2022/08/16 01:24:14;;;;;;;9.88;8.98;;;;;;;;;;5089053;28;25176;-46
2022/08/16 01:26:41;;;;;;;9.75;8.85;;;;;;;;;;5087730;28;24413;-46
2022/08/16 01:29:09;;;;;;;10.32;9.43;;;;;;;;;;5089072;28;24482;-46
2022/08/16 01:31:34;;;;;;;9.98;9.07;;;;;;;;;;5089403;28;24737;-46
2022/08/16 01:34:00;;;;;;;10.60;9.60;;;;;;;;;;5089027;28;25008;-47
2022/08/16 01:36:25;;;;;;;10.70;9.80;;;;;;;;;;5088949;28;24437;-47
2022/08/16 01:38:50;;;;;;;10.60;9.65;;;;;;;;;;5089238;28;24785;-47
2022/08/16 01:41:28;;;;;;;10.43;9.53;;;;;;;;;;5088725;28;24447;-47
2022/08/16 01:43:53;;;;;;;10.82;9.82;;;;;;;;;;5089214;28;24389;-47
2022/08/16 01:46:20;;;;;;;11.10;10.10;;;;;;;;;;5089158;28;24929;-46
2022/08/16 01:48:46;;;;;;;11.07;9.93;;;;;;;;;;5088057;28;24419;-46
2022/08/16 01:51:13;;;;;;;11.60;10.60;;;;;;;;;;5088895;28;24989;-47
2022/08/16 01:53:38;;;;;;;11.55;10.45;;;;;;;;;;5088436;28;24386;-46
2022/08/16 01:56:03;;;;;;;11.33;10.23;;;;;;;;;;5088560;28;24934;-46
2022/08/16 01:58:28;;;;;;;11.43;10.43;;;;;;;;;;5088383;28;24414;-46
2022/08/16 02:00:53;;;;;;;11.90;10.70;;;;;;;;;;5088663;28;24422;-46
2022/08/16 02:03:18;;;;;;;11.10;10.20;;;;;;;;;;5088489;28;24509;-46
2022/08/16 02:05:44;;;;;;;11.47;10.40;;;;;;;;;;5088139;28;24394;-46
2022/08/16 02:08:09;;;;;;;10.63;9.73;;;;;;;;;;5088372;28;24417;-46
2022/08/16 02:10:35;;;;;;;11.98;10.88;;;;;;;;;;5088225;28;24390;-46
2022/08/16 02:13:01;;;;;;;12.70;11.50;;;;;;;;;;5088354;28;24402;-46
2022/08/16 02:15:27;;;;;;;12.20;11.10;;;;;;;;;;5088210;28;24401;-46
2022/08/16 02:17:53;;;;;;;11.98;10.77;;;;;;;;;;5088296;28;24406;-47
2022/08/16 02:20:18;;;;;;;11.80;10.70;;;;;;;;;;5088479;28;24422;-46
2022/08/16 02:22:44;;;;;;;12.07;10.88;;;;;;;;;;5088137;28;24515;-46
2022/08/16 02:25:11;;;;;;;12.00;10.80;;;;;;;;;;5088251;28;24770;-46
2022/08/16 02:27:39;;;;;;;11.60;10.50;;;;;;;;;;5088016;28;24493;-46
2022/08/16 02:30:05;;;;;;;12.40;11.30;;;;;;;;;;5087649;28;24437;-46
2022/08/16 02:32:30;;;;;;;12.10;11.00;;;;;;;;;;5087706;28;24404;-46
2022/08/16 02:34:55;;;;;;;12.20;11.00;;;;;;;;;;5088317;28;24916;-46
2022/08/16 02:37:21;;;;;;;12.73;11.53;;;;;;;;;;5087672;28;24482;-46
2022/08/16 02:39:46;;;;;;;11.40;10.40;;;;;;;;;;5087549;28;24909;-45
2022/08/16 02:42:11;;;;;;;12.38;11.15;;;;;;;;;;5088038;28;24414;-46
2022/08/16 02:44:36;;;;;;;11.60;10.60;;;;;;;;;;5087869;28;24830;-47
2022/08/16 02:47:02;;;;;;;12.03;10.93;;;;;;;;;;5087708;28;24426;-45
2022/08/16 02:49:27;;;;;;;13.43;12.13;;;;;;;;;;5087390;28;24853;-46
2022/08/16 02:51:52;;;;;;;12.83;11.63;;;;;;;;;;5087706;28;25032;-46
2022/08/16 02:54:17;;;;;;;11.77;10.67;;;;;;;;;;5087612;28;24835;-46
2022/08/16 02:56:43;;;;;;;11.57;10.48;;;;;;;;;;5087615;28;24387;-46
2022/08/16 02:59:09;;;;;;;11.40;10.30;;;;;;;;;;5085576;28;24493;-46
2022/08/16 03:01:34;;;;;;;10.80;9.70;;;;;;;;;;5085684;28;24952;-46
2022/08/16 03:04:00;;;;;;;11.13;10.13;;;;;;;;;;5087264;28;24827;-47
2022/08/16 03:06:25;;;;;;;11.53;10.53;;;;;;;;;;5087208;28;24410;-46
2022/08/16 03:08:50;;;;;;;11.30;10.30;;;;;;;;;;5087093;28;24407;-47
2022/08/16 03:11:17;;;;;;;11.20;10.27;;;;;;;;;;5087636;28;24406;-46
2022/08/16 03:13:43;;;;;;;11.60;10.60;;;;;;;;;;5087124;28;24382;-46
2022/08/16 03:16:08;;;;;;;11.18;10.18;;;;;;;;;;5087552;28;24435;-46
2022/08/16 03:18:33;;;;;;;11.80;10.70;;;;;;;;;;5087052;28;25037;-46
2022/08/16 03:20:58;;;;;;;11.13;10.13;;;;;;;;;;5087379;28;24477;-46
2022/08/16 03:23:23;;;;;;;10.83;9.90;;;;;;;;;;5086971;28;24541;-46
2022/08/16 03:25:49;;;;;;;12.40;11.20;;;;;;;;;;5087399;28;24403;-46
2022/08/16 03:28:14;;;;;;;11.93;10.90;;;;;;;;;;5087334;28;24398;-46
2022/08/16 03:30:40;;;;;;;11.77;10.57;;;;;;;;;;5086815;28;24418;-48
2022/08/16 03:33:05;;;;;;;10.93;9.83;;;;;;;;;;5086963;28;24387;-46
2022/08/16 03:35:32;;;;;;;11.57;10.47;;;;;;;;;;5086865;28;24652;-46
2022/08/16 03:37:59;;;;;;;12.00;10.80;;;;;;;;;;5086570;28;24405;-46
2022/08/16 03:40:25;;;;;;;11.50;10.40;;;;;;;;;;5086642;28;24401;-46
2022/08/16 03:42:50;;;;;;;11.10;10.10;;;;;;;;;;5087017;28;24414;-47
2022/08/16 03:45:16;;;;;;;11.32;10.23;;;;;;;;;;5087130;28;24776;-49
2022/08/16 03:47:41;;;;;;;10.80;9.80;;;;;;;;;;5086826;28;24477;-47
2022/08/16 03:50:07;;;;;;;11.60;10.40;;;;;;;;;;5088508;28;24394;-47
2022/08/16 03:52:34;;;;;;;11.00;10.00;;;;;;;;;;5090893;28;24406;-47
2022/08/16 03:54:59;;;;;;;10.32;9.23;;;;;;;;;;5091106;28;24497;-46
2022/08/16 03:57:25;;;;;;;10.90;9.90;;;;;;;;;;5090869;28;24481;-47
2022/08/16 03:59:50;;;;;;;10.50;9.60;;;;;;;;;;5088545;28;24761;-47
2022/08/16 04:02:17;;;;;;;11.50;10.50;;;;;;;;;;5090859;28;24418;-46
2022/08/16 04:04:43;;;;;;;11.05;10.05;;;;;;;;;;5090561;28;24505;-47
2022/08/16 04:07:08;;;;;;;10.87;9.87;;;;;;;;;;5090658;28;24755;-47
2022/08/16 04:09:33;;;;;;;10.20;9.30;;;;;;;;;;5090603;28;24413;-46
2022/08/16 04:11:58;;;;;;;11.13;9.90;;;;;;;;;;5090994;28;24467;-46
2022/08/16 04:14:24;;;;;;;11.43;10.32;;;;;;;;;;5090416;28;24423;-46
2022/08/16 04:16:49;;;;;;;10.57;9.57;;;;;;;;;;5090445;28;24431;-46
2022/08/16 04:19:14;;;;;;;11.30;9.90;;;;;;;;;;5090053;28;24768;-46
2022/08/16 04:21:39;;;;;;;11.90;10.80;;;;;;;;;;5090093;28;24430;-46
2022/08/16 04:24:04;;;;;;;11.20;10.10;;;;;;;;;;5090493;28;24972;-46
2022/08/16 04:26:30;;;;;;;11.40;10.30;;;;;;;;;;5090634;28;24531;-46
2022/08/16 04:28:55;;;;;;;10.87;9.87;;;;;;;;;;5090432;28;24400;-46
2022/08/16 04:31:20;;;;;;;11.20;9.60;;;;;;;;;;5090196;28;24804;-46
2022/08/16 04:33:46;;;;;;;10.47;9.57;;;;;;;;;;5089848;28;24402;-47
2022/08/16 04:36:11;;;;;;;10.68;9.68;;;;;;;;;;5090663;28;24481;-47
2022/08/16 04:38:36;;;;;;;11.43;10.47;;;;;;;;;;5090026;28;24397;-46
2022/08/16 04:41:02;;;;;;;10.80;9.90;;;;;;;;;;5088768;28;24485;-46
2022/08/16 04:43:27;;;;;;;11.00;10.00;;;;;;;;;;5089711;28;25019;-46
2022/08/16 04:45:52;;;;;;;10.80;9.90;;;;;;;;;;5090000;28;25291;-46
2022/08/16 04:48:18;;;;;;;10.63;9.82;;;;;;;;;;5089903;28;24447;-47
2022/08/16 04:50:43;;;;;;;9.60;8.80;;;;;;;;;;5089488;28;24490;-47
2022/08/16 04:53:08;;;;;;;10.67;9.77;;;;;;;;;;5089723;28;24977;-46
2022/08/16 04:55:34;;;;;;;9.80;8.90;;;;;;;;;;5089866;28;24449;-46
2022/08/16 04:58:00;;;;;;;9.60;8.67;;;;;;;;;;5090068;28;24414;-47
2022/08/16 05:00:29;;;;;;;9.80;8.90;;;;;;;;;;5088994;28;24980;-47
2022/08/16 05:02:55;;;;;;;9.30;8.50;;;;;;;;;;5089583;28;24476;-47
2022/08/16 05:05:21;;;;;;;9.40;8.60;;;;;;;;;;5089449;28;24390;-47
2022/08/16 05:07:46;;;;;;;9.57;8.73;;;;;;;;;;5089238;28;24593;-47
2022/08/16 05:10:11;;;;;;;9.60;8.70;;;;;;;;;;5089691;28;24481;-47
2022/08/16 05:12:37;;;;;;;9.80;8.70;;;;;;;;;;5089359;28;24390;-47
2022/08/16 05:15:03;;;;;;;11.00;10.00;;;;;;;;;;5089885;28;24796;-46
2022/08/16 05:17:30;;;;;;;10.10;9.20;;;;;;;;;;5089763;28;24928;-46
2022/08/16 05:19:55;;;;;;;9.52;8.63;;;;;;;;;;5089159;28;24980;-46
2022/08/16 05:22:21;;;;;;;10.05;9.07;;;;;;;;;;5088956;28;24501;-46
2022/08/16 05:24:46;;;;;;;10.20;9.30;;;;;;;;;;5089003;28;24397;-47
2022/08/16 05:27:11;;;;;;;8.90;8.10;;;;;;;;;;5089511;28;24796;-47
2022/08/16 05:29:36;;;;;;;9.52;8.73;;;;;;;;;;5088903;28;24489;-47
2022/08/16 05:32:02;;;;;;;9.83;8.93;;;;;;;;;;5089402;28;24391;-46
2022/08/16 05:34:27;;;;;;;10.02;9.13;;;;;;;;;;5088645;28;24787;-46
2022/08/16 05:36:56;;;;;;;9.20;8.30;;;;;;;;;;5088870;28;24441;-47
2022/08/16 05:39:21;;;;;;;9.77;8.97;;;;;;;;;;5089185;28;24414;-48
2022/08/16 05:41:47;;;;;;;9.23;8.30;;;;;;;;;;5088266;28;24511;-46
2022/08/16 05:44:16;;;;;;;8.90;8.10;;;;;;;;;;5087434;28;24438;-46
2022/08/16 05:46:43;;;;;;;8.32;7.70;;;;;;;;;;5088907;28;24402;-48
2022/08/16 05:49:09;;;;;;;10.18;9.18;;;;;;;;;;5088523;28;24390;-46
2022/08/16 05:51:34;;;;;;;9.70;8.90;;;;;;;;;;5088795;28;24927;-46
2022/08/16 05:53:59;;;;;;;9.40;8.70;;;;;;;;;;5088464;28;24981;-47
2022/08/16 05:56:24;;;;;;;9.50;8.70;;;;;;;;;;5088700;28;24431;-46
2022/08/16 05:58:50;;;;;;;10.80;9.90;;;;;;;;;;5088416;28;24506;-48
2022/08/16 06:01:15;;;;;;;10.37;9.47;;;;;;;;;;5088355;28;24400;-47
2022/08/16 06:03:40;;;;;;;10.93;9.90;;;;;;;;;;5088197;28;24409;-47
2022/08/16 06:06:05;;;;;;;10.80;9.80;;;;;;;;;;5088205;28;24382;-47
2022/08/16 06:08:30;;;;;;;9.20;8.40;;;;;;;;;;5088565;28;24403;-47
2022/08/16 06:10:55;;;;;;;9.10;8.40;;;;;;;;;;5088130;28;24406;-47
2022/08/16 06:13:21;;;;;;;7.93;7.22;;;;;;;;;;5088063;28;24485;-46
2022/08/16 06:15:46;;;;;;;8.90;8.00;;;;;;;;;;5087981;28;24920;-49
2022/08/16 06:18:11;;;;;;;10.00;9.10;;;;;;;;;;5088500;28;24413;-47
2022/08/16 06:20:36;;;;;;;9.00;8.20;;;;;;;;;;5087703;28;24425;-47
2022/08/16 06:23:01;;;;;;;9.20;8.30;;;;;;;;;;5087924;28;24420;-47
2022/08/16 06:25:27;;;;;;;9.00;8.20;;;;;;;;;;5088051;28;24936;-47
2022/08/16 06:27:52;;;;;;;8.70;7.90;;;;;;;;;;5087798;28;24402;-47
2022/08/16 06:30:18;;;;;;;9.60;8.70;;;;;;;;;;5087662;28;24401;-47
2022/08/16 06:32:43;;;;;;;8.70;8.00;;;;;;;;;;5087517;28;24412;-47
2022/08/16 06:35:09;;;;;;;8.63;7.90;;;;;;;;;;5087784;28;24474;-46
2022/08/16 06:37:34;;;;;;;9.70;8.80;;;;;;;;;;5087920;28;25202;-47
2022/08/16 06:39:59;;;;;;;8.50;7.80;;;;;;;;;;5087782;28;24385;-47
2022/08/16 06:42:24;;;;;;;8.20;7.50;;;;;;;;;;5087702;28;24438;-48
2022/08/16 06:44:49;;;;;;;7.93;7.23;;;;;;;;;;5087327;28;24402;-48
2022/08/16 06:47:15;;;;;;;9.00;8.10;;;;;;;;;;5087753;28;24429;-51
2022/08/16 06:49:40;;;;;;;7.93;7.23;;;;;;;;;;5087270;28;24397;-47
2022/08/16 06:52:07;;;;;;;8.40;7.70;;;;;;;;;;5087246;28;24405;-48
2022/08/16 06:54:33;;;;;;;7.43;6.83;;;;;;;;;;5087526;28;24390;-46
2022/08/16 06:56:58;;;;;;;7.47;6.87;;;;;;;;;;5087431;28;24715;-47
2022/08/16 06:59:23;;;;;;;7.10;6.60;;;;;;;;;;5087319;28;24559;-46
2022/08/16 07:01:48;;;;;;;6.75;6.25;;;;;;;;;;5087350;28;24513;-46
2022/08/16 07:04:13;;;;;;;6.85;6.30;;;;;;;;;;5087438;28;24444;-46
2022/08/16 07:06:42;;;;;;;8.00;7.30;;;;;;;;;;5087159;28;24387;-47
2022/08/16 07:09:09;;;;;;;6.55;6.05;;;;;;;;;;5087756;28;24745;-48
2022/08/16 07:11:34;;;;;;;7.43;6.75;;;;;;;;;;5087342;28;24391;-46
2022/08/16 07:13:59;;;;;;;7.10;6.50;;;;;;;;;;5087264;28;24401;-48
2022/08/16 07:16:24;;;;;;;7.40;6.77;;;;;;;;;;5087011;28;24389;-51
2022/08/16 07:18:51;;;;;;;7.57;6.97;;;;;;;;;;5087016;28;24389;-46
2022/08/16 07:21:16;;;;;;;7.80;7.20;;;;;;;;;;5087055;28;24386;-46
2022/08/16 07:23:44;;;;;;;7.50;6.90;;;;;;;;;;5086866;28;24479;-46
2022/08/16 07:26:12;;;;;;;7.65;6.85;;;;;;;;;;5087476;28;24399;-47
2022/08/16 07:28:37;;;;;;;7.43;6.90;;;;;;;;;;5087054;28;24386;-47
2022/08/16 07:31:03;;;;;;;7.60;7.00;;;;;;;;;;5086695;28;24796;-47
2022/08/16 07:33:29;;;;;;;7.50;6.80;;;;;;;;;;5086935;28;24536;-47
2022/08/16 07:35:56;;;;;;;6.75;6.25;;;;;;;;;;5087467;28;24509;-45
2022/08/16 07:38:22;;;;;;;7.07;6.57;;;;;;;;;;5087140;28;24444;-48
2022/08/16 07:40:47;;;;;;;7.00;6.50;;;;;;;;;;5087150;28;24394;-46
2022/08/16 07:43:12;;;;;;;7.22;6.53;;;;;;;;;;5087158;28;24423;-46
2022/08/16 07:45:37;;;;;;;7.82;7.03;;;;;;;;;;5087013;28;24413;-47
2022/08/16 07:48:02;;;;;;;6.90;6.30;;;;;;;;;;5086613;28;24410;-45
2022/08/16 07:50:27;;;;;;;7.23;6.63;;;;;;;;;;5087034;28;24932;-47
2022/08/16 07:52:53;;;;;;;6.07;5.67;;;;;;;;;;5086966;28;24397;-46
2022/08/16 07:55:18;;;;;;;6.35;5.70;;;;;;;;;;5086886;28;24437;-46
2022/08/16 07:57:43;;;;;;;6.10;5.70;;;;;;;;;;5086733;28;24418;-46
2022/08/16 08:00:09;;;;;;;6.00;5.60;;;;;;;;;;5086891;28;24405;-46
2022/08/16 08:02:35;;;;;;;6.72;6.13;;;;;;;;;;5086783;28;24406;-47
2022/08/16 08:05:00;;;;;;;6.57;6.17;;;;;;;;;;5086875;28;24393;-48
2022/08/16 08:07:25;;;;;;;5.72;5.32;;;;;;;;;;5087160;28;24867;-45
2022/08/16 08:09:51;;;;;;;6.20;5.70;;;;;;;;;;5087161;28;24920;-46
2022/08/16 08:12:18;;;;;;;5.80;5.30;;;;;;;;;;5086385;28;24473;-47
2022/08/16 08:14:44;;;;;;;6.25;5.75;;;;;;;;;;5086435;28;25046;-46
2022/08/16 08:17:09;;;;;;;5.90;5.40;;;;;;;;;;5087101;28;24398;-47
2022/08/16 08:19:34;;;;;;;5.60;5.20;;;;;;;;;;5086984;28;24887;-47
2022/08/16 08:21:59;;;;;;;5.87;5.37;;;;;;;;;;5086664;28;24414;-47
2022/08/16 08:24:25;;;;;;;5.40;5.00;;;;;;;;;;5086799;28;24394;-47
2022/08/16 08:26:50;;;;;;;6.85;6.28;;;;;;;;;;5086665;28;24959;-48
2022/08/16 08:29:15;;;;;;;5.23;4.83;;;;;;;;;;5086775;28;24538;-46
2022/08/16 08:31:43;;;;;;;7.10;5.70;;;;;;;;;;5086102;28;24489;-48
2022/08/16 08:34:09;;;;;;;5.72;5.32;;;;;;;;;;5086830;28;24405;-45
2022/08/16 08:36:35;;;;;;;5.47;5.00;;;;;;;;;;5089390;28;24425;-45
2022/08/16 08:39:02;;;;;;;5.70;5.20;;;;;;;;;;5090387;28;24490;-46
2022/08/16 08:41:28;;;;;;;5.05;4.75;;;;;;;;;;5090181;28;24815;-46
2022/08/16 08:43:53;;;;;;;5.50;5.00;;;;;;;;;;5090294;28;24861;-47
2022/08/16 08:46:18;;;;;;;5.10;4.70;;;;;;;;;;5090072;28;24485;-48
2022/08/16 08:48:45;;;;;;;5.80;5.00;;;;;;;;;;5089369;28;24823;-47
2022/08/16 08:51:10;;;;;;;5.53;5.13;;;;;;;;;;5090130;28;24757;-46
2022/08/16 08:53:37;;;;;;;5.07;4.67;;;;;;;;;;5089357;28;24423;-46
2022/08/16 08:56:03;;;;;;;5.65;5.25;;;;;;;;;;5089783;28;24413;-46
2022/08/16 08:58:29;;;;;;;4.95;4.65;;;;;;;;;;5089884;28;24406;-47
2022/08/16 09:00:55;;;;;;;5.17;4.80;;;;;;;;;;5089539;28;24383;-47
2022/08/16 09:03:20;;;;;;;5.30;4.90;;;;;;;;;;5089500;28;24487;-46
2022/08/16 09:05:46;;;;;;;4.88;4.57;;;;;;;;;;5089614;28;24390;-46
2022/08/16 09:08:11;;;;;;;5.00;4.70;;;;;;;;;;5090009;28;24413;-47
2022/08/16 09:10:36;;;;;;;5.45;5.05;;;;;;;;;;5089319;28;24932;-46
2022/08/16 09:13:04;;;;;;;5.57;5.07;;;;;;;;;;5089269;28;24964;-47
2022/08/16 09:15:30;;;;;;;6.05;4.60;;;;;;;;;;5089516;28;24400;-46
2022/08/16 09:17:55;;;;;;;5.40;5.00;;;;;;;;;;5089594;28;24485;-47
2022/08/16 09:20:22;;;;;;;5.47;5.13;;;;;;;;;;5089414;28;24444;-46
2022/08/16 09:22:48;;;;;;;5.20;4.80;;;;;;;;;;5089037;28;24895;-47
2022/08/16 09:25:13;;;;;;;4.60;4.30;;;;;;;;;;5089472;28;24393;-46
2022/08/16 09:27:38;;;;;;;4.77;4.40;;;;;;;;;;5089238;28;24386;-47
2022/08/16 09:30:04;;;;;;;4.80;4.40;;;;;;;;;;5089159;28;24394;-46
2022/08/16 09:32:29;;;;;;;5.40;5.00;;;;;;;;;;5089103;28;24943;-45
2022/08/16 09:34:54;;;;;;;6.00;4.90;;;;;;;;;;5089119;28;25073;-47
2022/08/16 09:37:20;;;;;;;4.83;4.43;;;;;;;;;;5089090;28;24387;-47
2022/08/16 09:39:45;;;;;;;5.32;4.85;;;;;;;;;;5089271;28;24390;-46
2022/08/16 09:42:10;;;;;;;5.30;4.80;;;;;;;;;;5088961;28;24409;-46
2022/08/16 09:44:35;;;;;;;5.45;4.90;;;;;;;;;;5089091;28;24418;-47
2022/08/16 09:47:01;;;;;;;4.83;4.53;;;;;;;;;;5087816;28;24414;-47
2022/08/16 09:49:26;;;;;;;4.80;4.50;;;;;;;;;;5089011;28;24405;-48
2022/08/16 09:51:53;;;;;;;5.00;4.60;;;;;;;;;;5088950;28;24436;-47
2022/08/16 09:54:19;;;;;;;4.93;4.53;;;;;;;;;;5088695;28;24398;-47
2022/08/16 09:56:44;;;;;;;5.28;4.78;;;;;;;;;;5088434;28;24428;-47
2022/08/16 09:59:10;;;;;;;4.93;4.63;;;;;;;;;;5088579;28;24402;-48
2022/08/16 10:01:37;;;;;;;4.68;4.30;;;;;;;;;;5088646;28;24394;-46
2022/08/16 10:04:03;;;;;;;4.53;4.13;;;;;;;;;;5088265;28;24962;-48
2022/08/16 10:06:29;;;;;;;4.78;4.38;;;;;;;;;;5088736;28;24416;-47
2022/08/16 10:08:54;;;;;;;4.37;4.07;;;;;;;;;;5088470;28;24391;-47
2022/08/16 10:14:03;;;;;;;4.68;4.28;;;;;;;;;;5088240;28;24397;-47
2022/08/16 10:16:28;;;;;;;4.70;4.30;;;;;;;;;;5088729;28;24402;-46
2022/08/16 10:18:54;;;;;;;4.60;4.30;;;;;;;;;;5088248;28;24958;-47
2022/08/16 10:21:19;;;;;;;5.00;4.50;;;;;;;;;;5088209;28;24460;-46
2022/08/16 10:23:47;;;;;;;4.00;3.70;;;;;;;;;;5087991;28;24426;-46
2022/08/16 10:26:12;;;;;;;4.70;4.40;;;;;;;;;;5088191;28;24402;-46
2022/08/16 10:28:38;;;;;;;5.00;4.60;;;;;;;;;;5087808;28;24462;-46
2022/08/16 10:31:04;;;;;;;5.23;4.80;;;;;;;;;;5087547;28;24415;-46
2022/08/16 10:33:29;;;;;;;6.38;4.75;;;;;;;;;;5088054;28;24452;-46
2022/08/16 10:35:54;;;;;;;4.90;4.50;;;;;;;;;;5087920;28;24417;-46
2022/08/16 10:38:20;;;;;;;4.90;4.60;;;;;;;;;;5087989;28;25270;-46
2022/08/16 10:40:45;;;;;;;5.05;4.53;;;;;;;;;;5087399;28;24406;-46
2022/08/16 10:43:11;;;;;;;4.70;4.40;;;;;;;;;;5088057;28;24422;-46
2022/08/16 10:45:36;;;;;;;4.90;4.50;;;;;;;;;;5087908;28;24439;-47
2022/08/16 10:48:01;;;;;;;4.87;4.57;;;;;;;;;;5087510;28;24418;-47
2022/08/16 10:50:27;;;;;;;4.45;4.15;;;;;;;;;;5088021;28;24407;-48
2022/08/16 10:52:52;;;;;;;4.93;4.53;;;;;;;;;;5086965;28;24393;-46
2022/08/16 10:55:18;;;;;;;4.77;4.47;;;;;;;;;;5087690;28;24393;-46
2022/08/16 10:57:43;;;;;;;4.95;4.57;;;;;;;;;;5087207;28;24442;-47
2022/08/16 11:00:11;;;;;;;4.57;4.28;;;;;;;;;;5087517;28;24451;-46
2022/08/16 11:02:37;;;;;;;5.13;4.83;;;;;;;;;;5086966;28;24410;-45
2022/08/16 11:05:03;;;;;;;4.80;4.50;;;;;;;;;;5087533;28;24382;-46
2022/08/16 11:07:28;;;;;;;5.60;5.10;;;;;;;;;;5087422;28;24733;-47
2022/08/16 11:09:53;;;;;;;4.60;4.20;;;;;;;;;;5087317;28;24511;-47
2022/08/16 11:12:18;;;;;;;5.55;5.05;;;;;;;;;;5087415;28;24947;-47
2022/08/16 11:14:43;;;;;;;4.67;4.37;;;;;;;;;;5087112;28;24448;-46
2022/08/16 11:17:09;;;;;;;4.90;4.50;;;;;;;;;;5087600;28;24455;-48
2022/08/16 11:19:34;;;;;;;4.93;4.53;;;;;;;;;;5087641;28;24398;-45
2022/08/16 11:21:59;;;;;;;4.75;4.45;;;;;;;;;;5087232;28;25245;-47
2022/08/16 11:24:25;;;;;;;4.90;4.50;;;;;;;;;;5087039;28;24454;-46
2022/08/16 11:26:51;;;;;;;4.50;4.20;;;;;;;;;;5086861;28;24780;-47
2022/08/16 11:29:17;;;;;;;4.40;4.10;;;;;;;;;;5087351;28;24978;-44
2022/08/16 11:31:42;;;;;;;5.20;4.70;;;;;;;;;;5086818;28;24966;-47
2022/08/16 11:34:07;;;;;;;4.60;4.20;;;;;;;;;;5087103;28;24865;-47
2022/08/16 11:36:32;;;;;;;4.90;4.60;;;;;;;;;;5087255;28;24407;-47
2022/08/16 11:38:58;;;;;;;4.70;4.40;;;;;;;;;;5087205;28;24398;-47
2022/08/16 11:41:23;;;;;;;4.82;4.43;;;;;;;;;;5086780;28;24402;-48
2022/08/16 11:43:49;;;;;;;4.40;4.10;;;;;;;;;;5086961;28;24967;-46
2022/08/16 11:46:16;;;;;;;4.60;4.30;;;;;;;;;;5087127;28;24413;-47
2022/08/16 11:48:44;;;;;;;5.22;4.82;;;;;;;;;;5086733;28;24636;-46
2022/08/16 11:51:09;;;;;;;5.30;4.80;;;;;;;;;;5087487;28;24433;-47
2022/08/16 11:53:34;;;;;;;5.45;5.05;;;;;;;;;;5086728;28;24429;-47
2022/08/16 11:55:59;;;;;;;5.15;4.80;;;;;;;;;;5086714;28;24413;-47
2022/08/16 11:58:26;;;;;;;5.00;4.57;;;;;;;;;;5086539;28;25002;-46
2022/08/16 12:00:53;;;;;;;4.90;4.50;;;;;;;;;;5086897;28;24892;-47
2022/08/16 12:03:18;;;;;;;4.40;4.10;;;;;;;;;;5086692;28;24418;-46
2022/08/16 12:05:44;;;;;;;4.67;4.37;;;;;;;;;;5086540;28;24459;-46
2022/08/16 12:08:09;;;;;;;5.18;4.78;;;;;;;;;;5086964;28;24389;-47
2022/08/16 12:10:36;;;;;;;4.90;4.50;;;;;;;;;;5087726;28;24756;-46
2022/08/16 12:13:01;;;;;;;5.57;5.18;;;;;;;;;;5090528;28;25113;-46
2022/08/16 12:15:27;;;;;;;5.10;4.70;;;;;;;;;;5090811;28;24495;-48
2022/08/16 12:17:54;;;;;;;4.90;4.20;;;;;;;;;;5090647;28;24401;-45
2022/08/16 12:20:23;;;;;;;4.70;4.40;;;;;;;;;;5090679;28;24940;-48
2022/08/16 12:22:49;;;;;;;4.90;4.50;;;;;;;;;;5090239;28;24463;-47
2022/08/16 12:25:15;;;;;;;5.30;5.00;;;;;;;;;;5090750;28;24415;-47
2022/08/16 12:27:41;;;;;;;4.85;4.38;;;;;;;;;;5090254;28;24505;-47
2022/08/16 12:30:07;;;;;;;5.03;4.72;;;;;;;;;;5090457;28;24557;-47
2022/08/16 12:32:32;;;;;;;5.80;5.18;;;;;;;;;;5089954;28;24397;-47
2022/08/16 12:34:57;;;;;;;5.28;4.88;;;;;;;;;;5090522;28;24758;-46
2022/08/16 12:37:23;;;;;;;5.50;5.10;;;;;;;;;;5090061;28;24424;-47
2022/08/16 12:39:49;;;;;;;4.80;4.50;;;;;;;;;;5090192;28;24418;-48
2022/08/16 12:42:14;;;;;;;5.20;4.80;;;;;;;;;;5089642;28;25002;-47
2022/08/16 12:44:42;;;;;;;5.07;4.77;;;;;;;;;;5090032;28;24382;-48
2022/08/16 12:49:52;;;;;;;4.53;4.20;;;;;;;;;;5090025;28;24389;-46
2022/08/16 12:52:17;;;;;;;5.10;4.80;;;;;;;;;;5089644;28;24451;-47
2022/08/16 12:54:42;;;;;;;4.90;4.50;;;;;;;;;;5089939;28;24413;-45
2022/08/16 12:57:08;;;;;;;4.80;4.40;;;;;;;;;;5090181;28;24994;-50
2022/08/16 12:59:34;;;;;;;5.10;4.70;;;;;;;;;;5090070;28;24799;-46
2022/08/16 13:01:59;;;;;;;5.30;5.00;;;;;;;;;;5089606;28;24402;-48
2022/08/16 13:04:25;;;;;;;5.00;4.60;;;;;;;;;;5089570;28;24390;-46
2022/08/16 13:06:50;;;;;;;4.70;4.40;;;;;;;;;;5089882;28;24394;-46
2022/08/16 13:09:20;;;;;;;4.80;4.50;;;;;;;;;;5089789;28;24413;-46
2022/08/16 13:11:58;;;;;;;5.30;4.78;;;;;;;;;;5089639;28;24397;-47
2022/08/16 13:14:24;;;;;;;5.30;4.90;;;;;;;;;;5089453;28;24474;-45
2022/08/16 13:16:49;;;;;;;4.50;4.20;;;;;;;;;;5089651;28;24551;-46
2022/08/16 13:19:15;;;;;;;5.00;4.60;;;;;;;;;;5089814;28;24493;-50
2022/08/16 13:21:40;;;;;;;4.70;4.40;;;;;;;;;;5089471;28;24394;-47
2022/08/16 13:24:05;;;;;;;4.97;4.57;;;;;;;;;;5088909;28;24893;-47
2022/08/16 13:26:30;;;;;;;5.10;4.70;;;;;;;;;;5089811;28;24515;-48
2022/08/16 13:28:55;;;;;;;5.17;4.83;;;;;;;;;;5089148;28;25030;-47
2022/08/16 13:31:20;;;;;;;5.10;4.70;;;;;;;;;;5089555;28;24424;-45
2022/08/16 13:33:46;;;;;;;4.60;4.20;;;;;;;;;;5088635;28;24436;-47
2022/08/16 13:36:11;;;;;;;4.60;4.30;;;;;;;;;;5089392;28;24995;-46
2022/08/16 13:38:36;;;;;;;4.77;4.47;;;;;;;;;;5089459;28;24386;-47
2022/08/16 13:41:03;;;;;;;4.50;4.20;;;;;;;;;;5089165;28;24413;-47
2022/08/16 13:43:29;;;;;;;4.60;4.30;;;;;;;;;;5088963;28;24453;-47
2022/08/16 13:45:55;;;;;;;10.53;5.20;;;;;;;;;;5088707;28;24983;-47
2022/08/16 13:48:20;;;;;;;6.03;5.20;;;;;;;;;;5088668;28;24459;-46
2022/08/16 13:50:45;;;;;;;5.27;4.77;;;;;;;;;;5088853;28;24398;-47
2022/08/16 13:53:11;;;;;;;8.77;4.70;;;;;;;;;;5088669;28;24733;-46
2022/08/16 13:55:36;;;;;;;5.13;4.73;;;;;;;;;;5089037;28;24394;-46
2022/08/16 13:58:01;;;;;;;4.73;4.43;;;;;;;;;;5088963;28;24509;-47
2022/08/16 14:00:26;;;;;;;4.70;4.40;;;;;;;;;;5088504;28;24796;-47
2022/08/16 14:02:52;;;;;;;4.60;4.30;;;;;;;;;;5088107;28;24952;-47
2022/08/16 14:05:17;;;;;;;4.70;4.30;;;;;;;;;;5088529;28;24394;-47
2022/08/16 14:07:42;;;;;;;4.60;4.30;;;;;;;;;;5088848;28;24390;-46
2022/08/16 14:10:08;;;;;;;4.87;4.47;;;;;;;;;;5088545;28;24942;-48
2022/08/16 14:12:35;;;;;;;4.78;4.47;;;;;;;;;;5088028;28;24403;-48
2022/08/16 14:15:00;;;;;;;4.80;4.40;;;;;;;;;;5088335;28;24856;-47
2022/08/16 14:17:27;;;;;;;4.50;4.20;;;;;;;;;;5087954;28;24952;-47
2022/08/16 14:19:52;;;;;;;5.00;4.70;;;;;;;;;;5088576;28;24413;-47
2022/08/16 14:22:19;;;;;;;5.07;4.68;;;;;;;;;;5087964;28;24418;-46
2022/08/16 14:24:45;;;;;;;4.70;4.40;;;;;;;;;;5088195;28;24393;-47
2022/08/16 14:27:11;;;;;;;4.20;3.90;;;;;;;;;;5088014;28;24482;-47
2022/08/16 14:29:36;;;;;;;5.53;5.13;;;;;;;;;;5087999;28;24455;-47
2022/08/16 14:32:03;;;;;;;5.10;4.50;;;;;;;;;;5088285;28;24928;-47